sensor_id;sensor_type;location;lat;lon;timestamp;P1;durP1;ratioP1;P2;durP2;ratioP2
54025;SDS011;74404;50.662;3.398;2023-12-04T00:02:19;12.43;;;7.30;;
54025;SDS011;74404;50.662;3.398;2023-12-04T00:04:45;14.00;;;6.93;;
54025;SDS011;74404;50.662;3.398;2023-12-04T00:07:19;12.75;;;7.28;;
54025;SDS011;74404;50.662;3.398;2023-12-04T00:09:44;13.95;;;7.38;;
54025;SDS011;74404;50.662;3.398;2023-12-04T00:12:13;12.32;;;7.50;;
54025;SDS011;74404;50.662;3.398;2023-12-04T00:14:38;11.82;;;7.18;;
54025;SDS011;74404;50.662;3.398;2023-12-04T00:17:04;12.82;;;7.25;;
54025;SDS011;74404;50.662;3.398;2023-12-04T00:19:30;10.40;;;6.63;;
54025;SDS011;74404;50.662;3.398;2023-12-04T00:21:55;12.50;;;7.50;;
54025;SDS011;74404;50.662;3.398;2023-12-04T00:24:21;11.07;;;6.97;;
54025;SDS011;74404;50.662;3.398;2023-12-04T00:26:46;12.85;;;7.18;;
54025;SDS011;74404;50.662;3.398;2023-12-04T00:29:11;13.65;;;6.93;;
54025;SDS011;74404;50.662;3.398;2023-12-04T00:31:37;10.07;;;6.38;;
54025;SDS011;74404;50.662;3.398;2023-12-04T00:34:02;10.77;;;6.30;;
54025;SDS011;74404;50.662;3.398;2023-12-04T00:36:28;10.77;;;6.95;;
54025;SDS011;74404;50.662;3.398;2023-12-04T00:38:54;10.90;;;6.50;;
54025;SDS011;74404;50.662;3.398;2023-12-04T00:41:19;12.88;;;6.60;;
54025;SDS011;74404;50.662;3.398;2023-12-04T00:43:45;11.10;;;6.43;;
54025;SDS011;74404;50.662;3.398;2023-12-04T00:46:10;10.27;;;5.97;;
54025;SDS011;74404;50.662;3.398;2023-12-04T00:48:36;11.07;;;6.60;;
54025;SDS011;74404;50.662;3.398;2023-12-04T00:51:01;12.35;;;6.60;;
54025;SDS011;74404;50.662;3.398;2023-12-04T00:53:27;12.57;;;7.10;;
54025;SDS011;74404;50.662;3.398;2023-12-04T00:55:52;10.65;;;6.35;;
54025;SDS011;74404;50.662;3.398;2023-12-04T00:58:18;10.30;;;6.03;;
54025;SDS011;74404;50.662;3.398;2023-12-04T01:00:46;10.43;;;6.25;;
54025;SDS011;74404;50.662;3.398;2023-12-04T01:03:14;9.23;;;5.90;;
54025;SDS011;74404;50.662;3.398;2023-12-04T01:05:39;10.93;;;6.40;;
54025;SDS011;74404;50.662;3.398;2023-12-04T01:08:05;10.43;;;5.97;;
54025;SDS011;74404;50.662;3.398;2023-12-04T01:10:30;11.35;;;6.53;;
54025;SDS011;74404;50.662;3.398;2023-12-04T01:12:56;9.32;;;5.90;;
54025;SDS011;74404;50.662;3.398;2023-12-04T01:15:21;11.40;;;6.00;;
54025;SDS011;74404;50.662;3.398;2023-12-04T01:22:45;10.32;;;6.35;;
54025;SDS011;74404;50.662;3.398;2023-12-04T01:25:10;10.77;;;6.28;;
54025;SDS011;74404;50.662;3.398;2023-12-04T01:27:36;9.27;;;5.60;;
54025;SDS011;74404;50.662;3.398;2023-12-04T01:30:02;9.15;;;5.63;;
54025;SDS011;74404;50.662;3.398;2023-12-04T01:32:29;10.48;;;6.13;;
54025;SDS011;74404;50.662;3.398;2023-12-04T01:34:55;11.27;;;6.30;;
54025;SDS011;74404;50.662;3.398;2023-12-04T01:37:21;9.95;;;5.97;;
54025;SDS011;74404;50.662;3.398;2023-12-04T01:39:57;9.23;;;6.03;;
54025;SDS011;74404;50.662;3.398;2023-12-04T01:42:22;10.73;;;6.50;;
54025;SDS011;74404;50.662;3.398;2023-12-04T01:44:48;9.23;;;5.85;;
54025;SDS011;74404;50.662;3.398;2023-12-04T01:47:13;9.15;;;5.75;;
54025;SDS011;74404;50.662;3.398;2023-12-04T01:49:46;9.15;;;5.93;;
54025;SDS011;74404;50.662;3.398;2023-12-04T01:52:11;10.18;;;5.90;;
54025;SDS011;74404;50.662;3.398;2023-12-04T01:54:37;11.18;;;5.72;;
54025;SDS011;74404;50.662;3.398;2023-12-04T01:57:02;9.63;;;5.50;;
54025;SDS011;74404;50.662;3.398;2023-12-04T01:59:29;10.43;;;6.05;;
54025;SDS011;74404;50.662;3.398;2023-12-04T02:01:55;8.82;;;5.47;;
54025;SDS011;74404;50.662;3.398;2023-12-04T02:04:21;8.77;;;5.28;;
54025;SDS011;74404;50.662;3.398;2023-12-04T02:06:47;8.48;;;5.35;;
54025;SDS011;74404;50.662;3.398;2023-12-04T02:09:13;8.50;;;5.40;;
54025;SDS011;74404;50.662;3.398;2023-12-04T02:11:41;8.50;;;4.90;;
54025;SDS011;74404;50.662;3.398;2023-12-04T02:14:07;9.35;;;5.57;;
54025;SDS011;74404;50.662;3.398;2023-12-04T02:16:35;8.45;;;5.38;;
54025;SDS011;74404;50.662;3.398;2023-12-04T02:19:06;9.45;;;5.45;;
54025;SDS011;74404;50.662;3.398;2023-12-04T02:21:37;8.13;;;5.07;;
54025;SDS011;74404;50.662;3.398;2023-12-04T02:24:02;10.68;;;6.00;;
54025;SDS011;74404;50.662;3.398;2023-12-04T02:29:55;9.02;;;5.30;;
54025;SDS011;74404;50.662;3.398;2023-12-04T02:42:11;7.93;;;4.72;;
54025;SDS011;74404;50.662;3.398;2023-12-04T02:51:24;10.13;;;5.85;;
54025;SDS011;74404;50.662;3.398;2023-12-04T02:57:25;8.40;;;5.05;;
54025;SDS011;74404;50.662;3.398;2023-12-04T03:17:50;9.82;;;5.10;;
54025;SDS011;74404;50.662;3.398;2023-12-04T03:20:16;9.77;;;4.97;;
54025;SDS011;74404;50.662;3.398;2023-12-04T03:22:41;9.70;;;5.60;;
54025;SDS011;74404;50.662;3.398;2023-12-04T03:25:07;7.95;;;4.93;;
54025;SDS011;74404;50.662;3.398;2023-12-04T03:27:34;8.82;;;4.55;;
54025;SDS011;74404;50.662;3.398;2023-12-04T03:36:23;9.93;;;5.35;;
54025;SDS011;74404;50.662;3.398;2023-12-04T03:45:32;7.88;;;4.70;;
54025;SDS011;74404;50.662;3.398;2023-12-04T03:47:57;7.53;;;4.88;;
54025;SDS011;74404;50.662;3.398;2023-12-04T03:50:23;7.80;;;4.97;;
54025;SDS011;74404;50.662;3.398;2023-12-04T03:52:49;8.57;;;4.88;;
54025;SDS011;74404;50.662;3.398;2023-12-04T03:55:14;7.25;;;4.75;;
54025;SDS011;74404;50.662;3.398;2023-12-04T03:57:40;7.70;;;4.88;;
54025;SDS011;74404;50.662;3.398;2023-12-04T04:00:06;7.40;;;4.60;;
54025;SDS011;74404;50.662;3.398;2023-12-04T04:02:34;7.22;;;4.45;;
54025;SDS011;74404;50.662;3.398;2023-12-04T04:05:00;7.07;;;4.13;;
54025;SDS011;74404;50.662;3.398;2023-12-04T04:07:26;8.45;;;5.00;;
54025;SDS011;74404;50.662;3.398;2023-12-04T04:09:52;7.45;;;4.45;;
54025;SDS011;74404;50.662;3.398;2023-12-04T04:12:17;7.65;;;4.82;;
54025;SDS011;74404;50.662;3.398;2023-12-04T04:14:43;9.90;;;4.65;;
54025;SDS011;74404;50.662;3.398;2023-12-04T04:17:08;9.98;;;4.70;;
54025;SDS011;74404;50.662;3.398;2023-12-04T04:19:34;9.13;;;4.57;;
54025;SDS011;74404;50.662;3.398;2023-12-04T04:22:00;8.48;;;4.63;;
54025;SDS011;74404;50.662;3.398;2023-12-04T04:24:25;7.57;;;4.43;;
54025;SDS011;74404;50.662;3.398;2023-12-04T04:26:51;7.85;;;4.60;;
54025;SDS011;74404;50.662;3.398;2023-12-04T04:29:17;7.43;;;4.43;;
54025;SDS011;74404;50.662;3.398;2023-12-04T04:31:42;7.50;;;4.47;;
54025;SDS011;74404;50.662;3.398;2023-12-04T04:37:14;7.50;;;4.78;;
54025;SDS011;74404;50.662;3.398;2023-12-04T04:39:40;7.35;;;4.60;;
54025;SDS011;74404;50.662;3.398;2023-12-04T04:42:05;6.78;;;4.53;;
54025;SDS011;74404;50.662;3.398;2023-12-04T04:44:31;8.38;;;4.68;;
54025;SDS011;74404;50.662;3.398;2023-12-04T04:46:56;8.40;;;4.50;;
54025;SDS011;74404;50.662;3.398;2023-12-04T04:49:22;8.13;;;4.70;;
54025;SDS011;74404;50.662;3.398;2023-12-04T04:51:47;6.57;;;4.50;;
54025;SDS011;74404;50.662;3.398;2023-12-04T04:54:12;10.48;;;4.82;;
54025;SDS011;74404;50.662;3.398;2023-12-04T04:56:38;7.60;;;4.57;;
54025;SDS011;74404;50.662;3.398;2023-12-04T04:59:03;8.27;;;4.45;;
54025;SDS011;74404;50.662;3.398;2023-12-04T05:01:29;6.38;;;4.00;;
54025;SDS011;74404;50.662;3.398;2023-12-04T05:03:54;7.40;;;4.57;;
54025;SDS011;74404;50.662;3.398;2023-12-04T05:06:20;8.25;;;4.85;;
54025;SDS011;74404;50.662;3.398;2023-12-04T05:08:48;7.63;;;4.70;;
54025;SDS011;74404;50.662;3.398;2023-12-04T05:11:15;7.45;;;4.68;;
54025;SDS011;74404;50.662;3.398;2023-12-04T05:13:41;8.63;;;4.88;;
54025;SDS011;74404;50.662;3.398;2023-12-04T05:16:07;7.47;;;4.38;;
54025;SDS011;74404;50.662;3.398;2023-12-04T05:18:33;7.65;;;4.68;;
54025;SDS011;74404;50.662;3.398;2023-12-04T05:20:59;8.65;;;5.07;;
54025;SDS011;74404;50.662;3.398;2023-12-04T05:23:25;8.40;;;4.78;;
54025;SDS011;74404;50.662;3.398;2023-12-04T05:25:50;8.27;;;4.82;;
54025;SDS011;74404;50.662;3.398;2023-12-04T05:28:16;7.68;;;4.63;;
54025;SDS011;74404;50.662;3.398;2023-12-04T05:30:42;6.63;;;4.35;;
54025;SDS011;74404;50.662;3.398;2023-12-04T05:33:08;7.88;;;4.72;;
54025;SDS011;74404;50.662;3.398;2023-12-04T05:35:34;8.05;;;4.28;;
54025;SDS011;74404;50.662;3.398;2023-12-04T05:38:01;7.40;;;4.80;;
54025;SDS011;74404;50.662;3.398;2023-12-04T05:40:26;8.10;;;5.07;;
54025;SDS011;74404;50.662;3.398;2023-12-04T05:42:52;6.88;;;4.60;;
54025;SDS011;74404;50.662;3.398;2023-12-04T05:45:17;7.43;;;4.95;;
54025;SDS011;74404;50.662;3.398;2023-12-04T05:47:43;7.65;;;4.57;;
54025;SDS011;74404;50.662;3.398;2023-12-04T05:50:08;7.82;;;4.72;;
54025;SDS011;74404;50.662;3.398;2023-12-04T05:52:34;8.63;;;4.88;;
54025;SDS011;74404;50.662;3.398;2023-12-04T05:54:59;6.82;;;4.35;;
54025;SDS011;74404;50.662;3.398;2023-12-04T05:57:25;7.65;;;4.50;;
54025;SDS011;74404;50.662;3.398;2023-12-04T05:59:51;8.70;;;4.82;;
54025;SDS011;74404;50.662;3.398;2023-12-04T06:02:16;6.65;;;4.45;;
54025;SDS011;74404;50.662;3.398;2023-12-04T06:04:42;9.23;;;5.10;;
54025;SDS011;74404;50.662;3.398;2023-12-04T06:07:07;11.27;;;5.20;;
54025;SDS011;74404;50.662;3.398;2023-12-04T06:09:33;8.23;;;4.68;;
54025;SDS011;74404;50.662;3.398;2023-12-04T06:11:58;9.57;;;5.18;;
54025;SDS011;74404;50.662;3.398;2023-12-04T06:14:29;8.82;;;5.05;;
54025;SDS011;74404;50.662;3.398;2023-12-04T06:16:55;10.68;;;5.60;;
54025;SDS011;74404;50.662;3.398;2023-12-04T06:19:21;9.00;;;5.47;;
54025;SDS011;74404;50.662;3.398;2023-12-04T06:21:46;8.88;;;5.35;;
54025;SDS011;74404;50.662;3.398;2023-12-04T06:24:12;8.88;;;5.22;;
54025;SDS011;74404;50.662;3.398;2023-12-04T06:26:37;8.63;;;5.63;;
54025;SDS011;74404;50.662;3.398;2023-12-04T06:29:07;8.95;;;5.78;;
54025;SDS011;74404;50.662;3.398;2023-12-04T06:31:33;9.90;;;5.65;;
54025;SDS011;74404;50.662;3.398;2023-12-04T06:33:59;10.05;;;5.40;;
54025;SDS011;74404;50.662;3.398;2023-12-04T06:36:24;9.98;;;5.45;;
54025;SDS011;74404;50.662;3.398;2023-12-04T06:38:52;12.10;;;5.47;;
54025;SDS011;74404;50.662;3.398;2023-12-04T06:41:18;15.18;;;5.90;;
54025;SDS011;74404;50.662;3.398;2023-12-04T06:43:46;11.70;;;5.90;;
54025;SDS011;74404;50.662;3.398;2023-12-04T06:46:12;8.98;;;5.70;;
54025;SDS011;74404;50.662;3.398;2023-12-04T06:48:40;13.00;;;5.97;;
54025;SDS011;74404;50.662;3.398;2023-12-04T06:51:08;9.25;;;5.90;;
54025;SDS011;74404;50.662;3.398;2023-12-04T06:53:33;8.93;;;5.78;;
54025;SDS011;74404;50.662;3.398;2023-12-04T06:55:59;11.23;;;5.57;;
54025;SDS011;74404;50.662;3.398;2023-12-04T06:58:24;10.15;;;5.93;;
54025;SDS011;74404;50.662;3.398;2023-12-04T07:00:50;9.02;;;5.50;;
54025;SDS011;74404;50.662;3.398;2023-12-04T07:03:15;12.95;;;5.85;;
54025;SDS011;74404;50.662;3.398;2023-12-04T07:05:41;9.95;;;5.95;;
54025;SDS011;74404;50.662;3.398;2023-12-04T07:08:07;9.40;;;5.70;;
54025;SDS011;74404;50.662;3.398;2023-12-04T07:10:32;9.27;;;5.93;;
54025;SDS011;74404;50.662;3.398;2023-12-04T07:12:58;10.38;;;5.80;;
54025;SDS011;74404;50.662;3.398;2023-12-04T07:15:23;9.90;;;5.80;;
54025;SDS011;74404;50.662;3.398;2023-12-04T07:17:49;10.13;;;5.65;;
54025;SDS011;74404;50.662;3.398;2023-12-04T07:20:14;10.82;;;5.70;;
54025;SDS011;74404;50.662;3.398;2023-12-04T07:22:40;10.20;;;5.28;;
54025;SDS011;74404;50.662;3.398;2023-12-04T07:25:06;9.55;;;5.55;;
54025;SDS011;74404;50.662;3.398;2023-12-04T07:27:34;10.60;;;5.50;;
54025;SDS011;74404;50.662;3.398;2023-12-04T07:30:00;9.68;;;5.68;;
54025;SDS011;74404;50.662;3.398;2023-12-04T07:32:26;9.15;;;5.80;;
54025;SDS011;74404;50.662;3.398;2023-12-04T07:34:51;13.45;;;5.93;;
54025;SDS011;74404;50.662;3.398;2023-12-04T07:37:17;9.48;;;6.05;;
54025;SDS011;74404;50.662;3.398;2023-12-04T07:39:43;9.77;;;5.55;;
54025;SDS011;74404;50.662;3.398;2023-12-04T07:42:11;9.30;;;5.68;;
54025;SDS011;74404;50.662;3.398;2023-12-04T07:44:37;8.95;;;5.40;;
54025;SDS011;74404;50.662;3.398;2023-12-04T07:47:02;8.98;;;5.68;;
54025;SDS011;74404;50.662;3.398;2023-12-04T07:49:28;8.23;;;5.35;;
54025;SDS011;74404;50.662;3.398;2023-12-04T07:51:53;8.50;;;5.20;;
54025;SDS011;74404;50.662;3.398;2023-12-04T07:54:19;9.20;;;5.60;;
54025;SDS011;74404;50.662;3.398;2023-12-04T07:56:44;8.50;;;5.18;;
54025;SDS011;74404;50.662;3.398;2023-12-04T07:59:10;11.07;;;5.78;;
54025;SDS011;74404;50.662;3.398;2023-12-04T08:01:35;9.23;;;5.93;;
54025;SDS011;74404;50.662;3.398;2023-12-04T08:04:01;10.30;;;5.35;;
54025;SDS011;74404;50.662;3.398;2023-12-04T08:06:27;8.82;;;5.75;;
54025;SDS011;74404;50.662;3.398;2023-12-04T08:08:53;9.48;;;5.70;;
54025;SDS011;74404;50.662;3.398;2023-12-04T08:11:21;8.73;;;5.53;;
54025;SDS011;74404;50.662;3.398;2023-12-04T08:13:47;10.38;;;5.10;;
54025;SDS011;74404;50.662;3.398;2023-12-04T08:16:13;8.55;;;5.82;;
54025;SDS011;74404;50.662;3.398;2023-12-04T08:18:41;8.70;;;5.78;;
54025;SDS011;74404;50.662;3.398;2023-12-04T08:21:07;8.45;;;5.80;;
54025;SDS011;74404;50.662;3.398;2023-12-04T08:23:33;8.90;;;5.95;;
54025;SDS011;74404;50.662;3.398;2023-12-04T08:25:58;9.05;;;5.53;;
54025;SDS011;74404;50.662;3.398;2023-12-04T08:28:24;9.02;;;5.20;;
54025;SDS011;74404;50.662;3.398;2023-12-04T08:30:49;8.48;;;5.53;;
54025;SDS011;74404;50.662;3.398;2023-12-04T08:33:15;8.48;;;5.60;;
54025;SDS011;74404;50.662;3.398;2023-12-04T08:35:40;9.93;;;5.65;;
54025;SDS011;74404;50.662;3.398;2023-12-04T08:38:06;10.05;;;5.78;;
54025;SDS011;74404;50.662;3.398;2023-12-04T08:40:32;8.02;;;5.13;;
54025;SDS011;74404;50.662;3.398;2023-12-04T08:42:57;9.77;;;6.05;;
54025;SDS011;74404;50.662;3.398;2023-12-04T08:45:23;8.40;;;5.50;;
54025;SDS011;74404;50.662;3.398;2023-12-04T08:47:49;10.57;;;6.20;;
54025;SDS011;74404;50.662;3.398;2023-12-04T08:50:15;10.63;;;5.57;;
54025;SDS011;74404;50.662;3.398;2023-12-04T08:52:41;9.70;;;5.10;;
54025;SDS011;74404;50.662;3.398;2023-12-04T08:55:07;8.73;;;5.32;;
54025;SDS011;74404;50.662;3.398;2023-12-04T08:57:33;10.57;;;5.63;;
54025;SDS011;74404;50.662;3.398;2023-12-04T08:59:58;8.02;;;5.38;;
54025;SDS011;74404;50.662;3.398;2023-12-04T09:02:24;9.02;;;5.38;;
54025;SDS011;74404;50.662;3.398;2023-12-04T09:04:49;7.82;;;5.32;;
54025;SDS011;74404;50.662;3.398;2023-12-04T09:07:15;8.93;;;5.93;;
54025;SDS011;74404;50.662;3.398;2023-12-04T09:09:40;9.32;;;5.25;;
54025;SDS011;74404;50.662;3.398;2023-12-04T09:12:06;8.48;;;5.68;;
54025;SDS011;74404;50.662;3.398;2023-12-04T09:14:34;9.63;;;5.75;;
54025;SDS011;74404;50.662;3.398;2023-12-04T09:16:59;9.55;;;5.88;;
54025;SDS011;74404;50.662;3.398;2023-12-04T09:19:25;9.57;;;5.10;;
54025;SDS011;74404;50.662;3.398;2023-12-04T09:21:51;10.48;;;5.35;;
54025;SDS011;74404;50.662;3.398;2023-12-04T09:24:16;11.05;;;5.35;;
54025;SDS011;74404;50.662;3.398;2023-12-04T09:26:42;9.90;;;5.68;;
54025;SDS011;74404;50.662;3.398;2023-12-04T09:29:10;9.02;;;5.53;;
54025;SDS011;74404;50.662;3.398;2023-12-04T09:31:36;7.35;;;5.10;;
54025;SDS011;74404;50.662;3.398;2023-12-04T09:34:02;7.82;;;5.15;;
54025;SDS011;74404;50.662;3.398;2023-12-04T09:36:27;8.55;;;5.57;;
54025;SDS011;74404;50.662;3.398;2023-12-04T09:38:54;9.77;;;5.30;;
54025;SDS011;74404;50.662;3.398;2023-12-04T09:41:20;7.55;;;4.90;;
54025;SDS011;74404;50.662;3.398;2023-12-04T09:43:46;8.65;;;5.28;;
54025;SDS011;74404;50.662;3.398;2023-12-04T09:46:12;7.28;;;5.32;;
54025;SDS011;74404;50.662;3.398;2023-12-04T09:48:40;8.45;;;5.35;;
54025;SDS011;74404;50.662;3.398;2023-12-04T09:51:08;10.27;;;5.35;;
54025;SDS011;74404;50.662;3.398;2023-12-04T09:53:35;8.02;;;5.28;;
54025;SDS011;74404;50.662;3.398;2023-12-04T09:56:02;7.78;;;5.05;;
54025;SDS011;74404;50.662;3.398;2023-12-04T09:58:29;8.25;;;5.50;;
54025;SDS011;74404;50.662;3.398;2023-12-04T10:00:58;6.93;;;5.10;;
54025;SDS011;74404;50.662;3.398;2023-12-04T10:03:25;8.25;;;5.03;;
54025;SDS011;74404;50.662;3.398;2023-12-04T10:05:51;7.45;;;5.20;;
54025;SDS011;74404;50.662;3.398;2023-12-04T10:08:17;8.25;;;4.95;;
54025;SDS011;74404;50.662;3.398;2023-12-04T10:10:42;7.82;;;5.35;;
54025;SDS011;74404;50.662;3.398;2023-12-04T10:13:08;6.88;;;5.00;;
54025;SDS011;74404;50.662;3.398;2023-12-04T10:15:33;9.93;;;5.60;;
54025;SDS011;74404;50.662;3.398;2023-12-04T10:18:04;8.35;;;5.32;;
54025;SDS011;74404;50.662;3.398;2023-12-04T10:20:29;8.05;;;5.05;;
54025;SDS011;74404;50.662;3.398;2023-12-04T10:22:56;7.40;;;4.97;;
54025;SDS011;74404;50.662;3.398;2023-12-04T10:25:23;8.63;;;5.70;;
54025;SDS011;74404;50.662;3.398;2023-12-04T10:27:50;6.65;;;4.80;;
54025;SDS011;74404;50.662;3.398;2023-12-04T10:30:26;9.23;;;4.88;;
54025;SDS011;74404;50.662;3.398;2023-12-04T10:32:54;7.10;;;4.72;;
54025;SDS011;74404;50.662;3.398;2023-12-04T10:35:28;7.15;;;4.80;;
54025;SDS011;74404;50.662;3.398;2023-12-04T10:37:57;7.25;;;4.93;;
54025;SDS011;74404;50.662;3.398;2023-12-04T10:40:25;6.65;;;4.53;;
54025;SDS011;74404;50.662;3.398;2023-12-04T10:45:37;7.90;;;5.10;;
54025;SDS011;74404;50.662;3.398;2023-12-04T10:48:04;8.48;;;4.88;;
54025;SDS011;74404;50.662;3.398;2023-12-04T10:50:35;7.70;;;4.63;;
54025;SDS011;74404;50.662;3.398;2023-12-04T10:53:05;7.18;;;4.82;;
54025;SDS011;74404;50.662;3.398;2023-12-04T10:55:33;7.50;;;4.65;;
54025;SDS011;74404;50.662;3.398;2023-12-04T10:57:59;7.35;;;4.88;;
54025;SDS011;74404;50.662;3.398;2023-12-04T11:00:29;6.78;;;4.60;;
54025;SDS011;74404;50.662;3.398;2023-12-04T11:02:57;7.68;;;4.90;;
54025;SDS011;74404;50.662;3.398;2023-12-04T11:05:30;6.40;;;4.55;;
54025;SDS011;74404;50.662;3.398;2023-12-04T11:08:00;7.68;;;4.65;;
54025;SDS011;74404;50.662;3.398;2023-12-04T11:10:27;5.97;;;4.20;;
54025;SDS011;74404;50.662;3.398;2023-12-04T11:13:06;7.18;;;4.63;;
54025;SDS011;74404;50.662;3.398;2023-12-04T11:15:39;6.40;;;4.38;;
54025;SDS011;74404;50.662;3.398;2023-12-04T11:18:06;7.28;;;4.60;;
54025;SDS011;74404;50.662;3.398;2023-12-04T11:20:37;7.72;;;4.40;;
54025;SDS011;74404;50.662;3.398;2023-12-04T11:23:07;6.85;;;4.30;;
54025;SDS011;74404;50.662;3.398;2023-12-04T11:25:34;6.15;;;4.22;;
54025;SDS011;74404;50.662;3.398;2023-12-04T11:28:02;5.70;;;4.15;;
54025;SDS011;74404;50.662;3.398;2023-12-04T11:30:29;5.88;;;4.57;;
54025;SDS011;74404;50.662;3.398;2023-12-04T11:32:55;5.82;;;4.00;;
54025;SDS011;74404;50.662;3.398;2023-12-04T11:35:28;6.85;;;4.15;;
54025;SDS011;74404;50.662;3.398;2023-12-04T11:37:56;6.72;;;3.92;;
54025;SDS011;74404;50.662;3.398;2023-12-04T11:40:22;7.95;;;3.78;;
54025;SDS011;74404;50.662;3.398;2023-12-04T11:42:48;6.65;;;3.80;;
54025;SDS011;74404;50.662;3.398;2023-12-04T11:45:20;6.07;;;3.83;;
54025;SDS011;74404;50.662;3.398;2023-12-04T11:50:23;4.88;;;3.50;;
54025;SDS011;74404;50.662;3.398;2023-12-04T11:52:50;5.68;;;3.50;;
54025;SDS011;74404;50.662;3.398;2023-12-04T11:55:18;4.75;;;3.30;;
54025;SDS011;74404;50.662;3.398;2023-12-04T11:57:47;4.68;;;3.25;;
54025;SDS011;74404;50.662;3.398;2023-12-04T12:05:21;4.45;;;3.38;;
54025;SDS011;74404;50.662;3.398;2023-12-04T12:07:48;4.28;;;3.17;;
54025;SDS011;74404;50.662;3.398;2023-12-04T12:10:14;6.30;;;3.35;;
54025;SDS011;74404;50.662;3.398;2023-12-04T12:12:44;4.60;;;2.83;;
54025;SDS011;74404;50.662;3.398;2023-12-04T12:15:10;4.90;;;2.90;;
54025;SDS011;74404;50.662;3.398;2023-12-04T12:17:37;5.95;;;3.40;;
54025;SDS011;74404;50.662;3.398;2023-12-04T12:20:05;7.28;;;2.88;;
54025;SDS011;74404;50.662;3.398;2023-12-04T12:22:34;4.38;;;3.10;;
54025;SDS011;74404;50.662;3.398;2023-12-04T12:25:03;4.10;;;2.90;;
54025;SDS011;74404;50.662;3.398;2023-12-04T12:27:30;4.15;;;3.00;;
54025;SDS011;74404;50.662;3.398;2023-12-04T12:29:56;5.57;;;2.90;;
54025;SDS011;74404;50.662;3.398;2023-12-04T12:32:21;3.33;;;2.60;;
54025;SDS011;74404;50.662;3.398;2023-12-04T12:34:47;5.28;;;2.80;;
54025;SDS011;74404;50.662;3.398;2023-12-04T12:37:13;3.80;;;2.72;;
54025;SDS011;74404;50.662;3.398;2023-12-04T12:39:38;4.55;;;2.80;;
54025;SDS011;74404;50.662;3.398;2023-12-04T12:42:05;4.53;;;2.90;;
54025;SDS011;74404;50.662;3.398;2023-12-04T12:44:37;4.75;;;2.83;;
54025;SDS011;74404;50.662;3.398;2023-12-04T12:47:05;5.90;;;2.95;;
54025;SDS011;74404;50.662;3.398;2023-12-04T12:49:31;4.15;;;2.88;;
54025;SDS011;74404;50.662;3.398;2023-12-04T12:51:59;8.85;;;3.38;;
54025;SDS011;74404;50.662;3.398;2023-12-04T12:54:25;4.70;;;2.90;;
54025;SDS011;74404;50.662;3.398;2023-12-04T12:56:50;4.85;;;2.63;;
54025;SDS011;74404;50.662;3.398;2023-12-04T12:59:16;3.53;;;2.75;;
54025;SDS011;74404;50.662;3.398;2023-12-04T13:01:43;4.38;;;2.80;;
54025;SDS011;74404;50.662;3.398;2023-12-04T13:04:08;4.93;;;2.65;;
54025;SDS011;74404;50.662;3.398;2023-12-04T13:06:38;3.83;;;2.65;;
54025;SDS011;74404;50.662;3.398;2023-12-04T13:09:04;6.28;;;2.88;;
54025;SDS011;74404;50.662;3.398;2023-12-04T13:11:31;3.28;;;2.60;;
54025;SDS011;74404;50.662;3.398;2023-12-04T13:13:57;5.15;;;2.80;;
54025;SDS011;74404;50.662;3.398;2023-12-04T13:16:23;4.47;;;2.70;;
54025;SDS011;74404;50.662;3.398;2023-12-04T13:18:49;4.28;;;2.60;;
54025;SDS011;74404;50.662;3.398;2023-12-04T13:21:15;3.10;;;2.50;;
54025;SDS011;74404;50.662;3.398;2023-12-04T13:23:41;4.53;;;2.80;;
54025;SDS011;74404;50.662;3.398;2023-12-04T13:26:07;3.20;;;2.50;;
54025;SDS011;74404;50.662;3.398;2023-12-04T13:28:35;5.70;;;2.83;;
54025;SDS011;74404;50.662;3.398;2023-12-04T13:31:03;5.30;;;2.75;;
54025;SDS011;74404;50.662;3.398;2023-12-04T13:33:30;3.55;;;2.70;;
54025;SDS011;74404;50.662;3.398;2023-12-04T13:35:55;4.68;;;2.80;;
54025;SDS011;74404;50.662;3.398;2023-12-04T13:38:21;5.95;;;2.63;;
54025;SDS011;74404;50.662;3.398;2023-12-04T13:40:46;4.28;;;2.70;;
54025;SDS011;74404;50.662;3.398;2023-12-04T13:43:25;5.03;;;2.85;;
54025;SDS011;74404;50.662;3.398;2023-12-04T13:46:10;4.97;;;2.95;;
54025;SDS011;74404;50.662;3.398;2023-12-04T13:48:36;3.30;;;2.67;;
54025;SDS011;74404;50.662;3.398;2023-12-04T13:51:05;4.72;;;2.92;;
54025;SDS011;74404;50.662;3.398;2023-12-04T13:53:35;4.90;;;2.83;;
54025;SDS011;74404;50.662;3.398;2023-12-04T13:56:04;3.80;;;2.78;;
54025;SDS011;74404;50.662;3.398;2023-12-04T13:58:46;3.63;;;2.58;;
54025;SDS011;74404;50.662;3.398;2023-12-04T14:01:14;4.07;;;2.67;;
54025;SDS011;74404;50.662;3.398;2023-12-04T14:03:43;4.80;;;2.88;;
54025;SDS011;74404;50.662;3.398;2023-12-04T14:06:10;4.50;;;2.50;;
54025;SDS011;74404;50.662;3.398;2023-12-04T14:08:35;6.03;;;2.88;;
54025;SDS011;74404;50.662;3.398;2023-12-04T14:11:02;3.80;;;2.83;;
54025;SDS011;74404;50.662;3.398;2023-12-04T14:13:28;5.68;;;2.90;;
54025;SDS011;74404;50.662;3.398;2023-12-04T14:15:54;5.88;;;2.90;;
54025;SDS011;74404;50.662;3.398;2023-12-04T14:18:20;3.92;;;2.75;;
54025;SDS011;74404;50.662;3.398;2023-12-04T14:20:45;4.93;;;2.85;;
54025;SDS011;74404;50.662;3.398;2023-12-04T14:23:13;5.47;;;2.80;;
54025;SDS011;74404;50.662;3.398;2023-12-04T14:25:39;3.83;;;2.63;;
54025;SDS011;74404;50.662;3.398;2023-12-04T14:28:05;5.80;;;3.15;;
54025;SDS011;74404;50.662;3.398;2023-12-04T14:30:32;4.00;;;2.80;;
54025;SDS011;74404;50.662;3.398;2023-12-04T14:32:58;4.40;;;2.97;;
54025;SDS011;74404;50.662;3.398;2023-12-04T14:35:23;4.80;;;3.10;;
54025;SDS011;74404;50.662;3.398;2023-12-04T14:37:49;3.38;;;2.70;;
54025;SDS011;74404;50.662;3.398;2023-12-04T14:40:15;4.50;;;3.03;;
54025;SDS011;74404;50.662;3.398;2023-12-04T14:42:41;4.50;;;3.08;;
54025;SDS011;74404;50.662;3.398;2023-12-04T14:45:06;4.88;;;3.15;;
54025;SDS011;74404;50.662;3.398;2023-12-04T14:47:32;3.83;;;3.33;;
54025;SDS011;74404;50.662;3.398;2023-12-04T14:49:58;3.67;;;2.80;;
54025;SDS011;74404;50.662;3.398;2023-12-04T14:52:23;5.38;;;3.45;;
54025;SDS011;74404;50.662;3.398;2023-12-04T14:54:49;5.75;;;2.90;;
54025;SDS011;74404;50.662;3.398;2023-12-04T14:57:35;3.70;;;2.80;;
54025;SDS011;74404;50.662;3.398;2023-12-04T15:00:04;4.82;;;2.92;;
54025;SDS011;74404;50.662;3.398;2023-12-04T15:03:02;4.82;;;2.67;;
54025;SDS011;74404;50.662;3.398;2023-12-04T15:05:46;4.97;;;3.28;;
54025;SDS011;74404;50.662;3.398;2023-12-04T15:08:30;3.83;;;2.80;;
54025;SDS011;74404;50.662;3.398;2023-12-04T15:11:14;5.40;;;3.15;;
54025;SDS011;74404;50.662;3.398;2023-12-04T15:13:45;6.68;;;3.20;;
54025;SDS011;74404;50.662;3.398;2023-12-04T15:16:40;4.90;;;3.20;;
54025;SDS011;74404;50.662;3.398;2023-12-04T15:19:12;6.72;;;3.40;;
54025;SDS011;74404;50.662;3.398;2023-12-04T15:21:38;4.75;;;3.30;;
54025;SDS011;74404;50.662;3.398;2023-12-04T15:24:05;6.28;;;3.25;;
54025;SDS011;74404;50.662;3.398;2023-12-04T15:26:32;5.75;;;3.05;;
54025;SDS011;74404;50.662;3.398;2023-12-04T15:28:57;5.07;;;3.45;;
54025;SDS011;74404;50.662;3.398;2023-12-04T15:31:23;6.35;;;3.05;;
54025;SDS011;74404;50.662;3.398;2023-12-04T15:33:48;4.10;;;2.95;;
54025;SDS011;74404;50.662;3.398;2023-12-04T15:36:14;6.47;;;3.20;;
54025;SDS011;74404;50.662;3.398;2023-12-04T15:38:39;5.45;;;3.20;;
54025;SDS011;74404;50.662;3.398;2023-12-04T15:41:05;5.53;;;3.30;;
54025;SDS011;74404;50.662;3.398;2023-12-04T15:43:30;5.70;;;2.90;;
54025;SDS011;74404;50.662;3.398;2023-12-04T15:45:57;5.00;;;2.83;;
54025;SDS011;74404;50.662;3.398;2023-12-04T15:48:23;4.35;;;3.25;;
54025;SDS011;74404;50.662;3.398;2023-12-04T15:50:48;4.40;;;3.17;;
54025;SDS011;74404;50.662;3.398;2023-12-04T15:53:14;4.78;;;3.45;;
54025;SDS011;74404;50.662;3.398;2023-12-04T15:55:39;3.97;;;2.92;;
54025;SDS011;74404;50.662;3.398;2023-12-04T15:58:05;6.85;;;3.55;;